Terminal Aerodrome Forecast
Issued by NWS

Home | Current Version | Previous Version | Graphics & Text | Print | Product List | Glossary On
Versions: 1 2 3 4 5 6 7 8 9 10 11 12 13 14 15 16
000
FTUS43 KICT 240534
TAFCNU
TAF
KCNU 240534Z 2406/2506 32006KT P6SM BKN060
     FM241400 33009KT P6SM SCT035 BKN070
     FM241700 33010KT P6SM BKN040
     FM242300 33008KT P6SM SCT120
     FM250200 34004KT P6SM SCT250=

USA.gov is the U.S. government's official web portal to all federal, state and local government web resources and services.